createdAt,value
2023-05-05T00:00:14.678Z,17.0434
2023-05-05T00:01:15.491Z,17.0226
2023-05-05T00:02:15.875Z,17.0016
2023-05-05T00:03:17.739Z,16.9778
2023-05-05T00:04:22.483Z,16.9555
2023-05-05T00:05:24.980Z,16.9302
2023-05-05T00:06:25.517Z,16.9053
2023-05-05T00:07:27.448Z,16.8827
2023-05-05T00:08:29.352Z,16.8587
2023-05-05T00:09:30.363Z,16.8330
2023-05-05T00:10:32.255Z,16.8117
2023-05-05T00:11:34.424Z,16.7903
2023-05-05T00:12:35.502Z,16.7700
2023-05-05T00:13:36.265Z,16.7457
2023-05-05T00:14:37.172Z,16.7192
2023-05-05T00:15:38.746Z,16.6962
2023-05-05T00:16:39.243Z,16.6744
2023-05-05T00:17:40.766Z,16.6504
2023-05-05T00:18:41.986Z,16.6283
2023-05-05T00:19:43.451Z,16.6069
2023-05-05T00:20:44.544Z,16.5831
2023-05-05T00:21:46.328Z,16.5628
2023-05-05T00:22:48.255Z,16.5391
2023-05-05T00:23:51.579Z,16.5168
2023-05-05T00:24:53.664Z,16.4958
2023-05-05T00:25:55.368Z,16.4760
2023-05-05T00:26:57.407Z,16.4558
2023-05-05T00:27:57.483Z,16.4355
2023-05-05T00:28:59.433Z,16.4139
2023-05-05T00:30:32.665Z,16.5440
2023-05-05T00:31:34.034Z,16.3672
2023-05-05T00:32:37.742Z,16.3406
2023-05-05T00:33:40.119Z,16.3191
2023-05-05T00:34:42.763Z,16.2992
2023-05-05T00:35:42.996Z,16.2792
2023-05-05T00:36:43.274Z,16.2623
2023-05-05T00:38:12.497Z,16.4154
2023-05-05T00:39:14.178Z,16.2304
2023-05-05T00:40:16.615Z,16.2118
2023-05-05T00:41:19.935Z,16.1914
2023-05-05T00:42:22.370Z,16.1750
2023-05-05T00:43:23.583Z,16.1626
2023-05-05T00:44:26.355Z,16.1511
2023-05-05T00:45:29.473Z,16.1392
2023-05-05T00:46:30.708Z,16.1285
2023-05-05T00:47:33.107Z,16.1205
2023-05-05T00:48:33.198Z,16.1074
2023-05-05T00:49:35.443Z,16.0960
2023-05-05T00:50:42.045Z,16.0827
2023-05-05T00:52:08.716Z,16.2344
2023-05-05T00:53:10.974Z,16.0655
2023-05-05T00:54:12.310Z,16.0525
2023-05-05T00:55:13.588Z,16.0412
2023-05-05T00:56:17.350Z,16.0333
2023-05-05T00:57:19.393Z,16.0273
2023-05-05T00:58:19.453Z,16.0208
2023-05-05T00:59:20.268Z,16.0170
2023-05-05T01:00:21.944Z,16.0142
2023-05-05T01:01:24.651Z,16.0122
2023-05-05T01:02:28.001Z,16.0098
2023-05-05T01:03:28.755Z,16.0056
2023-05-05T01:04:30.089Z,16.0005
2023-05-05T01:05:30.926Z,15.9945
2023-05-05T01:06:34.543Z,15.9896
2023-05-05T01:07:34.890Z,15.9827
2023-05-05T01:08:35.039Z,15.9757
2023-05-05T01:09:38.147Z,15.9682
2023-05-05T01:10:42.212Z,15.9617
2023-05-05T01:11:43.168Z,15.9544
2023-05-05T01:13:11.143Z,16.1119
2023-05-05T01:14:12.955Z,15.9503
2023-05-05T01:15:15.632Z,15.9441
2023-05-05T01:16:18.112Z,15.9387
2023-05-05T01:17:18.522Z,15.9335
2023-05-05T01:18:20.757Z,15.9299
2023-05-05T01:19:25.623Z,15.9256
2023-05-05T01:20:26.397Z,15.9180
2023-05-05T01:21:56.491Z,16.0612
2023-05-05T01:23:00.234Z,15.9039
2023-05-05T01:24:00.367Z,15.8884
2023-05-05T01:25:06.568Z,15.8735
2023-05-05T01:26:34.074Z,16.0265
2023-05-05T01:27:34.865Z,15.8425
2023-05-05T01:29:03.446Z,15.9934
2023-05-05T01:30:04.112Z,15.8114
2023-05-05T01:31:36.359Z,15.9467
2023-05-05T01:32:39.685Z,15.7729
2023-05-05T01:33:40.570Z,15.7513
2023-05-05T01:34:44.403Z,15.7331
2023-05-05T01:35:45.418Z,15.7168
2023-05-05T01:36:47.985Z,15.7016
2023-05-05T01:37:49.420Z,15.6881
2023-05-05T01:38:51.324Z,15.6746
2023-05-05T01:39:51.483Z,15.6626
2023-05-05T01:40:54.155Z,15.6503
2023-05-05T01:41:56.983Z,15.6369
2023-05-05T01:43:02.595Z,15.6238
2023-05-05T01:44:02.643Z,15.6142
2023-05-05T01:45:07.910Z,15.6039
2023-05-05T01:46:10.028Z,15.5929
2023-05-05T01:47:11.455Z,15.5824
2023-05-05T01:48:15.264Z,15.5714
2023-05-05T01:49:18.956Z,15.5570
2023-05-05T01:50:20.679Z,15.5421
2023-05-05T01:51:22.327Z,15.5297
2023-05-05T01:52:25.608Z,15.5170
2023-05-05T01:53:27.620Z,15.5047
2023-05-05T01:54:27.552Z,15.4926
2023-05-05T01:55:32.077Z,15.4771
2023-05-05T01:56:35.757Z,15.4641
2023-05-05T01:57:37.865Z,15.4464
2023-05-05T01:58:41.171Z,15.4271
2023-05-05T01:59:43.315Z,15.4115
2023-05-05T02:00:43.462Z,15.3944
2023-05-05T02:02:47.074Z,15.5521
2023-05-05T02:03:49.055Z,15.3606
2023-05-05T02:04:49.165Z,15.3377
2023-05-05T02:05:49.549Z,15.3151
2023-05-05T02:06:53.282Z,15.2931
2023-05-05T02:07:55.527Z,15.2694
2023-05-05T02:08:57.776Z,15.2446
2023-05-05T02:10:01.537Z,15.2210
2023-05-05T02:11:04.083Z,15.2016
2023-05-05T02:12:32.065Z,15.3660
2023-05-05T02:14:04.586Z,15.3343
2023-05-05T02:15:09.588Z,15.1501
2023-05-05T02:16:12.965Z,15.1337
2023-05-05T02:18:42.461Z,15.3413
2023-05-05T02:19:46.302Z,15.1254
2023-05-05T02:20:48.573Z,15.1162
2023-05-05T02:21:49.223Z,15.1126
2023-05-05T02:22:49.663Z,15.1118
2023-05-05T02:23:52.802Z,15.1079
2023-05-05T02:24:55.034Z,15.1043
2023-05-05T02:26:25.029Z,15.2739
2023-05-05T02:27:29.549Z,15.0972
2023-05-05T02:28:33.254Z,15.0894
2023-05-05T02:29:37.895Z,15.0825
2023-05-05T02:30:43.458Z,15.0773
2023-05-05T02:31:43.683Z,15.0723
2023-05-05T02:32:44.567Z,15.0672
2023-05-05T02:33:48.234Z,15.0643
2023-05-05T02:34:51.342Z,15.0595
2023-05-05T02:36:50.613Z,15.2592
2023-05-05T02:37:51.016Z,15.0620
2023-05-05T02:38:52.916Z,15.0506
2023-05-05T02:39:53.936Z,15.0405
2023-05-05T02:40:54.867Z,15.0302
2023-05-05T02:46:02.058Z,15.2367
2023-05-05T02:49:06.756Z,15.2154
2023-05-05T02:50:08.566Z,14.9950
2023-05-05T02:51:12.904Z,14.9778
2023-05-05T02:52:15.277Z,14.9664
2023-05-05T03:02:07.785Z,15.1905
2023-05-05T03:03:08.889Z,14.9465
2023-05-05T03:04:13.011Z,14.9303
2023-05-05T03:05:16.714Z,14.9195
2023-05-05T03:06:20.266Z,14.9137
2023-05-05T03:07:22.619Z,14.9096
2023-05-05T03:08:24.480Z,14.9081
2023-05-05T03:09:25.530Z,14.9074
2023-05-05T03:10:28.386Z,14.9074
2023-05-05T03:11:29.235Z,14.9093
2023-05-05T03:12:30.339Z,14.9097
2023-05-05T03:13:34.710Z,14.9110
2023-05-05T03:14:37.128Z,14.9123
2023-05-05T03:15:38.874Z,14.9122
2023-05-05T03:16:40.006Z,14.9143
2023-05-05T03:17:42.154Z,14.9143
2023-05-05T03:18:47.136Z,14.9153
2023-05-05T03:19:50.435Z,14.9180
2023-05-05T03:20:54.680Z,14.9199
2023-05-05T03:21:56.882Z,14.9213
2023-05-05T03:23:02.668Z,14.9201
2023-05-05T03:24:31.082Z,15.0946
2023-05-05T03:25:32.343Z,14.9231
2023-05-05T03:26:36.038Z,14.9154
2023-05-05T03:27:36.417Z,14.9102
2023-05-05T03:30:41.160Z,15.1179
2023-05-05T03:31:44.547Z,14.9219
2023-05-05T03:32:46.808Z,14.9108
2023-05-05T03:33:47.507Z,14.9038
2023-05-05T03:46:46.671Z,15.2244
2023-05-05T03:47:47.355Z,14.9859
2023-05-05T03:52:51.919Z,15.2567
2023-05-05T03:53:52.531Z,15.0210
2023-05-05T03:55:19.478Z,15.1879
2023-05-05T03:56:22.063Z,15.0152
2023-05-05T03:57:26.280Z,15.0112
2023-05-05T03:58:31.923Z,15.0080
2023-05-05T03:59:32.378Z,15.0082
2023-05-05T04:30:21.609Z,14.8788
2023-05-05T04:31:26.619Z,14.5947
2023-05-05T04:40:49.442Z,14.8245
2023-05-05T04:41:57.088Z,14.5934
2023-05-05T04:43:00.515Z,14.5933
2023-05-05T04:44:11.359Z,14.6006
2023-05-05T04:52:47.827Z,14.9444
2023-05-05T04:53:49.691Z,14.6714
2023-05-05T04:54:52.635Z,14.6526
2023-05-05T04:55:56.772Z,14.6398
2023-05-05T05:01:58.255Z,14.8537
2023-05-05T05:03:00.106Z,14.6088
2023-05-05T05:08:26.469Z,14.8576
2023-05-05T05:13:29.089Z,14.8902
2023-05-05T05:14:32.892Z,14.6214
2023-05-05T05:15:36.648Z,14.6029
2023-05-05T05:16:38.199Z,14.5910
2023-05-05T05:17:40.378Z,14.5822
2023-05-05T05:18:40.687Z,14.5752
2023-05-05T05:19:40.856Z,14.5677
2023-05-05T05:43:12.515Z,14.9121
2023-05-05T05:44:14.743Z,14.6495
2023-05-05T05:45:17.119Z,14.6436
2023-05-05T05:46:17.497Z,14.6431
2023-05-05T05:59:18.911Z,15.0840
2023-05-05T06:00:19.585Z,14.8604
2023-05-05T06:01:20.829Z,14.8660
2023-05-05T06:02:25.867Z,14.8795
2023-05-05T06:03:29.459Z,14.8967
2023-05-05T06:08:41.185Z,15.2597
2023-05-05T06:09:43.203Z,15.0652
2023-05-05T06:10:43.675Z,15.0775
2023-05-05T06:11:44.547Z,15.0915
2023-05-05T06:13:14.133Z,15.2904
2023-05-05T06:14:19.554Z,15.1570
2023-05-05T06:15:22.456Z,15.1788
2023-05-05T06:28:17.029Z,0.0000
2023-05-05T06:29:17.630Z,0.0000
2023-05-05T06:30:50.592Z,16.0710
2023-05-05T06:32:24.119Z,16.0727
2023-05-05T06:33:51.925Z,15.9992
2023-05-05T06:34:54.029Z,15.8503
2023-05-05T06:35:56.823Z,15.8654
2023-05-05T06:37:56.113Z,16.1569
2023-05-05T06:45:09.329Z,16.4457
2023-05-05T06:46:37.395Z,16.4025
2023-05-05T06:48:08.062Z,16.4558
2023-05-05T06:49:10.626Z,16.3485
2023-05-05T06:50:38.626Z,16.5894
2023-05-05T06:51:42.163Z,16.4637
2023-05-05T06:53:10.485Z,16.6815
2023-05-05T06:54:43.764Z,16.7822
2023-05-05T06:56:12.162Z,16.8797
2023-05-05T06:57:40.951Z,16.9701
2023-05-05T06:59:09.775Z,17.0471
2023-05-05T07:00:40.691Z,17.1198
2023-05-05T07:02:09.397Z,17.2179
2023-05-05T07:03:40.899Z,17.2709
2023-05-05T07:04:44.186Z,17.1524
2023-05-05T07:06:14.391Z,17.3687
2023-05-05T07:07:43.707Z,17.4247
2023-05-05T07:09:16.936Z,17.4775
2023-05-05T07:10:16.194Z,17.3562
2023-05-05T07:11:49.168Z,17.5829
2023-05-05T07:13:49.577Z,17.6676
2023-05-05T07:15:27.450Z,17.7368
2023-05-05T07:16:50.100Z,17.8331
2023-05-05T07:18:21.387Z,17.9292
2023-05-05T07:19:51.716Z,18.0307
2023-05-05T07:21:20.609Z,18.1235
2023-05-05T07:22:22.208Z,18.0342
2023-05-05T07:23:52.170Z,18.2646
2023-05-05T07:25:20.991Z,18.3397
2023-05-05T07:26:52.377Z,18.4003
2023-05-05T07:28:23.114Z,18.4683
2023-05-05T07:29:53.768Z,18.5368
2023-05-05T07:30:54.699Z,18.4440
2023-05-05T07:32:25.050Z,18.6536
2023-05-05T07:33:56.993Z,18.7198
2023-05-05T07:35:28.670Z,18.7844
2023-05-05T07:36:57.888Z,18.8484
2023-05-05T07:38:27.904Z,18.8902
2023-05-05T07:39:58.330Z,18.9301
2023-05-05T07:41:27.350Z,18.9623
2023-05-05T07:42:58.305Z,18.9903
2023-05-05T07:45:29.334Z,19.0505
2023-05-05T07:47:01.783Z,19.0521
2023-05-05T07:48:32.285Z,19.0661
2023-05-05T07:50:03.439Z,19.0807
2023-05-05T07:51:34.979Z,19.0930
2023-05-05T07:53:13.610Z,19.1038
2023-05-05T07:54:05.902Z,18.9679
2023-05-05T07:55:37.676Z,19.1141
2023-05-05T07:57:07.778Z,19.1254
2023-05-05T07:58:38.936Z,19.1306
2023-05-05T08:00:11.124Z,19.1364
2023-05-05T08:01:42.421Z,19.1414
2023-05-05T08:03:12.877Z,19.1455
2023-05-05T08:04:45.087Z,19.1529
2023-05-05T08:06:15.460Z,19.1678
2023-05-05T08:07:47.331Z,19.1872
2023-05-05T08:09:16.331Z,19.2108
2023-05-05T08:10:47.712Z,19.2336
2023-05-05T08:12:16.546Z,19.2542
2023-05-05T08:13:46.209Z,19.2708
2023-05-05T08:15:17.490Z,19.2631
2023-05-05T08:16:49.284Z,19.3019
2023-05-05T08:18:19.998Z,19.3007
2023-05-05T08:19:48.948Z,19.2947
2023-05-05T08:21:51.800Z,19.3381
2023-05-05T08:24:56.024Z,19.3656
2023-05-05T08:26:57.656Z,19.4076
2023-05-05T08:28:29.185Z,19.4152
2023-05-05T08:30:01.280Z,19.4315
2023-05-05T08:31:31.043Z,19.4653
2023-05-05T08:33:03.589Z,19.4813
2023-05-05T08:34:33.428Z,19.5154
2023-05-05T08:35:35.175Z,19.3946
2023-05-05T08:37:05.644Z,19.5610
2023-05-05T08:38:36.044Z,19.5794
2023-05-05T08:40:08.924Z,19.6359
2023-05-05T08:41:39.195Z,19.6852
2023-05-05T08:42:39.831Z,19.5853
2023-05-05T08:43:42.950Z,19.6160
2023-05-05T08:45:14.354Z,19.7994
2023-05-05T08:46:44.922Z,19.8688
2023-05-05T08:48:13.834Z,19.9408
2023-05-05T08:49:43.608Z,20.0131
2023-05-05T08:51:16.097Z,20.0859
2023-05-05T08:52:48.087Z,20.1669
2023-05-05T08:54:17.779Z,20.2458
2023-05-05T08:55:48.403Z,20.3107
2023-05-05T08:57:19.403Z,20.3837
2023-05-05T08:58:50.687Z,20.4461
2023-05-05T09:00:19.953Z,20.5129
2023-05-05T09:01:50.721Z,20.5648
2023-05-05T09:03:22.084Z,20.6220
2023-05-05T09:04:51.920Z,20.6790
2023-05-05T09:06:21.676Z,20.7401
2023-05-05T09:07:52.273Z,20.7951
2023-05-05T09:09:22.030Z,20.8504
2023-05-05T09:10:51.812Z,20.8945
2023-05-05T09:12:22.142Z,20.9364
2023-05-05T09:13:53.407Z,20.9833
2023-05-05T09:15:24.785Z,21.0165
2023-05-05T09:16:56.072Z,21.0456
2023-05-05T09:18:26.262Z,21.0801
2023-05-05T09:19:56.070Z,21.1158
2023-05-05T09:21:26.799Z,21.1517
2023-05-05T09:22:58.260Z,21.1845
2023-05-05T09:24:30.257Z,21.2157
2023-05-05T09:26:00.717Z,21.2392
2023-05-05T09:27:30.723Z,21.2550
2023-05-05T09:29:00.974Z,21.2746
2023-05-05T09:30:32.265Z,21.3026
2023-05-05T09:32:03.088Z,21.3350
2023-05-05T09:33:34.693Z,21.3724
2023-05-05T09:35:05.033Z,21.4149
2023-05-05T09:36:34.348Z,21.4467
2023-05-05T09:38:05.907Z,21.4958
2023-05-05T09:39:36.726Z,21.5495
2023-05-05T09:41:08.268Z,21.6084
2023-05-05T09:42:38.889Z,21.6713
2023-05-05T09:44:09.669Z,21.7320
2023-05-05T09:45:41.366Z,21.7996
2023-05-05T09:47:25.981Z,21.8671
2023-05-05T09:48:43.423Z,21.9290
2023-05-05T09:50:13.764Z,21.9930
2023-05-05T09:51:43.831Z,22.0564
2023-05-05T09:53:13.168Z,22.1233
2023-05-05T09:54:43.516Z,22.1902
2023-05-05T09:56:12.844Z,22.2615
2023-05-05T09:57:43.147Z,22.3358
2023-05-05T09:59:12.901Z,22.4087
2023-05-05T10:00:43.253Z,22.4811
2023-05-05T10:02:13.606Z,22.5590
2023-05-05T10:03:43.985Z,22.6455
2023-05-05T10:05:14.364Z,22.7274
2023-05-05T10:06:43.515Z,22.8012
2023-05-05T10:08:13.875Z,22.8695
2023-05-05T10:09:44.171Z,22.9521
2023-05-05T10:11:13.474Z,23.0366
2023-05-05T10:12:43.782Z,23.1294
2023-05-05T10:14:14.535Z,23.2240
2023-05-05T10:15:45.852Z,23.3224
2023-05-05T10:17:16.265Z,23.4120
2023-05-05T10:18:45.535Z,23.4798
2023-05-05T10:20:14.799Z,23.5398
2023-05-05T10:21:44.065Z,23.6038
2023-05-05T10:23:13.894Z,23.6705
2023-05-05T10:24:45.407Z,23.7474
2023-05-05T10:26:15.219Z,23.8190
2023-05-05T10:27:44.875Z,23.8975
2023-05-05T10:29:15.626Z,23.9813
2023-05-05T10:30:45.004Z,24.0704
2023-05-05T10:32:40.798Z,24.1547
2023-05-05T10:33:45.074Z,24.2431
2023-05-05T10:35:14.710Z,24.3184
2023-05-05T10:36:44.993Z,24.3831
2023-05-05T10:38:15.724Z,24.4305
2023-05-05T10:39:45.027Z,24.4682
2023-05-05T10:41:14.360Z,24.5004
2023-05-05T10:42:43.745Z,24.5217
2023-05-05T10:44:12.945Z,24.5273
2023-05-05T10:45:43.588Z,24.5162
2023-05-05T10:47:14.247Z,24.4855
2023-05-05T10:48:45.739Z,24.4556
2023-05-05T10:50:14.561Z,24.4328
2023-05-05T10:51:43.886Z,24.4222
2023-05-05T10:53:15.198Z,24.4234
2023-05-05T10:54:45.885Z,24.4235
2023-05-05T10:56:16.724Z,24.4196
2023-05-05T10:57:47.904Z,24.4148
2023-05-05T10:59:18.184Z,24.4031
2023-05-05T11:00:47.539Z,24.3920
2023-05-05T11:02:16.865Z,24.3947
2023-05-05T11:03:47.396Z,24.4138
2023-05-05T11:05:18.804Z,24.4498
2023-05-05T11:06:49.156Z,24.4800
2023-05-05T11:08:18.521Z,24.5006
2023-05-05T11:09:48.311Z,24.5208
2023-05-05T11:11:18.559Z,24.5488
2023-05-05T11:12:48.352Z,24.5852
2023-05-05T11:14:17.667Z,24.6039
2023-05-05T11:15:48.817Z,24.6292
2023-05-05T11:17:18.175Z,24.6734
2023-05-05T11:18:47.595Z,24.7401
2023-05-05T11:20:17.020Z,24.8235
2023-05-05T11:21:46.716Z,24.9267
2023-05-05T11:23:16.772Z,25.0505
2023-05-05T11:24:45.241Z,25.2363
2023-05-05T11:26:14.456Z,25.5474
2023-05-05T11:27:43.644Z,25.9594
2023-05-05T11:29:13.884Z,26.4185
2023-05-05T11:30:44.140Z,26.9276
2023-05-05T11:32:13.647Z,27.4669
2023-05-05T11:33:15.605Z,27.7404
2023-05-05T11:34:45.703Z,28.3898
2023-05-05T11:36:15.794Z,28.9234
2023-05-05T11:37:44.900Z,29.4093
2023-05-05T11:39:13.998Z,29.8754
2023-05-05T11:40:43.019Z,30.3365
2023-05-05T11:42:13.071Z,30.7989
2023-05-05T11:43:43.212Z,31.2150
2023-05-05T11:44:44.605Z,31.3139
2023-05-05T11:46:16.236Z,31.6929
2023-05-05T11:47:44.832Z,31.9754
2023-05-05T11:49:13.812Z,32.3038
2023-05-05T11:50:43.349Z,32.6522
2023-05-05T11:52:12.432Z,32.9675
2023-05-05T11:53:41.437Z,33.2218
2023-05-05T11:55:10.496Z,33.4232
2023-05-05T11:56:41.544Z,33.5625
2023-05-05T11:58:10.586Z,33.6704
2023-05-05T11:59:40.626Z,33.6872
2023-05-05T12:01:10.724Z,33.6161
2023-05-05T12:02:40.065Z,33.4793
2023-05-05T12:04:10.104Z,33.3028
2023-05-05T12:05:38.961Z,33.1183
2023-05-05T12:07:09.101Z,32.9371
2023-05-05T12:08:39.224Z,32.8003
2023-05-05T12:10:08.631Z,32.7099
2023-05-05T12:11:37.407Z,32.6942
2023-05-05T12:13:06.563Z,32.7592
2023-05-05T12:14:36.599Z,32.8923
2023-05-05T12:16:06.754Z,33.0661
2023-05-05T12:17:36.713Z,33.2385
2023-05-05T12:19:05.741Z,33.3975
2023-05-05T12:20:35.642Z,33.4899
2023-05-05T12:22:04.683Z,33.5150
2023-05-05T12:23:33.626Z,33.5414
2023-05-05T12:25:03.604Z,33.5679
2023-05-05T12:26:32.588Z,33.6343
2023-05-05T12:28:01.494Z,33.7489
2023-05-05T12:29:31.488Z,33.8618
2023-05-05T12:31:01.629Z,33.9744
2023-05-05T12:32:31.569Z,34.0551
2023-05-05T12:34:01.624Z,34.1522
2023-05-05T12:35:31.795Z,34.2822
2023-05-05T12:37:01.611Z,34.4505
2023-05-05T12:38:31.607Z,34.5970
2023-05-05T12:40:00.496Z,34.7388
2023-05-05T12:41:29.434Z,34.8467
2023-05-05T12:42:59.364Z,34.9147
2023-05-05T12:44:28.821Z,34.9749
2023-05-05T12:45:58.885Z,35.0574
2023-05-05T12:47:29.314Z,35.1690
2023-05-05T12:48:59.754Z,35.3236
2023-05-05T12:50:28.654Z,35.5058
2023-05-05T12:51:57.639Z,35.7218
2023-05-05T12:53:27.485Z,35.9425
2023-05-05T12:54:57.376Z,36.1614
2023-05-05T12:56:26.272Z,36.3882
2023-05-05T12:57:56.184Z,36.5772
2023-05-05T12:59:26.083Z,36.7254
2023-05-05T13:00:56.459Z,36.8546
2023-05-05T13:02:25.262Z,36.9760
2023-05-05T13:03:54.126Z,37.0874
2023-05-05T13:05:23.028Z,37.2348
2023-05-05T13:06:53.512Z,37.4335
2023-05-05T13:08:20.736Z,37.6578
2023-05-05T13:09:50.565Z,37.8780
2023-05-05T13:11:19.376Z,38.0960
2023-05-05T13:12:48.186Z,38.3279
2023-05-05T13:14:17.010Z,38.5379
2023-05-05T13:15:46.846Z,38.7191
2023-05-05T13:17:15.634Z,38.8246
2023-05-05T13:18:45.487Z,38.8603
2023-05-05T13:20:15.373Z,38.7979
2023-05-05T13:21:44.252Z,38.6871
2023-05-05T13:23:13.148Z,38.5622
2023-05-05T13:24:50.605Z,38.4128
2023-05-05T13:26:11.963Z,38.2743
2023-05-05T13:27:40.921Z,38.1271
2023-05-05T13:29:09.860Z,37.9800
2023-05-05T13:30:38.746Z,37.9364
2023-05-05T13:32:07.623Z,37.9898
2023-05-05T13:33:36.480Z,38.0546
2023-05-05T13:35:05.418Z,38.1463
2023-05-05T13:36:35.275Z,38.2656
2023-05-05T13:38:05.219Z,38.3888
2023-05-05T13:39:35.086Z,38.4370
2023-05-05T13:41:05.155Z,38.3769
2023-05-05T13:42:33.978Z,38.2297
2023-05-05T13:44:03.916Z,38.0271
2023-05-05T13:45:33.895Z,37.8037
2023-05-05T13:47:03.915Z,37.5496
2023-05-05T13:48:32.864Z,37.2487
2023-05-05T13:50:01.907Z,36.9351
2023-05-05T13:51:31.852Z,36.6458
2023-05-05T13:53:00.894Z,36.3860
2023-05-05T13:54:29.859Z,36.1177
2023-05-05T13:55:58.967Z,35.8736
2023-05-05T13:57:30.145Z,35.6628
2023-05-05T13:59:00.104Z,35.4639
2023-05-05T14:00:29.197Z,35.2619
2023-05-05T14:01:58.146Z,35.0592
2023-05-05T14:03:27.162Z,34.8413
2023-05-05T14:04:56.997Z,34.6169
2023-05-05T14:06:26.424Z,34.3852
2023-05-05T14:07:56.430Z,34.1560
2023-05-05T14:09:25.597Z,33.9435
2023-05-05T14:10:55.727Z,33.7297
2023-05-05T14:12:25.827Z,33.5190
2023-05-05T14:13:55.995Z,33.3246
2023-05-05T14:15:25.851Z,33.1285
2023-05-05T14:16:55.784Z,32.9218
2023-05-05T14:18:25.503Z,32.7185
2023-05-05T14:19:56.396Z,32.5224
2023-05-05T14:21:25.799Z,32.3340
2023-05-05T14:22:54.980Z,32.1543
2023-05-05T14:24:25.425Z,31.9670
2023-05-05T14:25:54.569Z,31.7931
2023-05-05T14:27:23.833Z,31.6105
2023-05-05T14:28:53.585Z,31.4350
2023-05-05T14:30:22.935Z,31.2638
2023-05-05T14:31:52.357Z,31.0959
2023-05-05T14:33:21.602Z,30.9283
2023-05-05T14:34:50.856Z,30.7685
2023-05-05T14:36:21.104Z,30.6048
2023-05-05T14:37:50.353Z,30.4415
2023-05-05T14:39:19.504Z,30.2787
2023-05-05T14:40:48.688Z,30.1242
2023-05-05T14:42:17.946Z,29.9698
2023-05-05T14:43:47.138Z,29.8138
2023-05-05T14:45:17.417Z,29.6603
2023-05-05T14:46:48.551Z,29.5199
2023-05-05T14:48:16.918Z,29.3798
2023-05-05T14:49:47.209Z,29.2440
2023-05-05T14:51:16.873Z,29.1072
2023-05-05T14:52:46.133Z,28.9783
2023-05-05T14:54:26.935Z,28.8541
2023-05-05T14:55:47.006Z,28.7208
2023-05-05T14:57:18.079Z,28.5774
2023-05-05T14:58:49.471Z,28.4244
2023-05-05T15:00:18.246Z,28.2811
2023-05-05T15:01:47.649Z,28.1357
2023-05-05T15:03:18.686Z,27.9794
2023-05-05T15:04:50.337Z,27.8124
2023-05-05T15:06:19.743Z,27.6483
2023-05-05T15:07:51.355Z,27.4707
2023-05-05T15:09:21.056Z,27.3109
2023-05-05T15:10:52.158Z,27.1446
2023-05-05T15:12:21.993Z,27.0108
2023-05-05T15:13:53.570Z,26.8721
2023-05-05T15:15:23.117Z,26.7522
2023-05-05T15:16:53.130Z,26.6262
2023-05-05T15:18:21.990Z,26.5001
2023-05-05T15:19:53.308Z,26.3938
2023-05-05T15:21:23.334Z,26.3084
2023-05-05T15:22:54.328Z,26.2223
2023-05-05T15:24:25.133Z,26.1516
2023-05-05T15:25:54.959Z,26.0836
2023-05-05T15:27:25.281Z,26.0017
2023-05-05T15:28:54.649Z,25.8893
2023-05-05T15:30:25.541Z,25.7457
2023-05-05T15:31:56.865Z,25.5810
2023-05-05T15:33:29.053Z,25.3850
2023-05-05T15:35:00.570Z,25.1856
2023-05-05T15:36:29.399Z,24.9682
2023-05-05T15:37:59.406Z,24.7384
2023-05-05T15:39:29.667Z,24.4656
2023-05-05T15:40:31.871Z,24.0951
2023-05-05T15:41:34.535Z,23.7903
2023-05-05T15:42:35.726Z,23.4971
2023-05-05T15:44:07.932Z,23.2026
2023-05-05T15:49:17.992Z,21.9708
2023-05-05T15:50:45.976Z,21.6945
2023-05-05T15:52:14.778Z,21.4750
2023-05-05T16:10:55.818Z,20.8409
2023-05-05T16:11:58.930Z,20.7768
2023-05-05T16:13:29.769Z,21.0500
2023-05-05T16:14:59.909Z,21.2141
2023-05-05T16:16:32.297Z,21.3504
2023-05-05T16:18:01.543Z,21.4788
2023-05-05T16:19:32.546Z,21.5706
2023-05-05T16:21:03.126Z,21.6515
2023-05-05T16:22:05.744Z,21.5555
2023-05-05T16:23:35.737Z,21.7322
2023-05-05T16:25:04.953Z,21.7632
2023-05-05T16:26:08.485Z,21.6507
2023-05-05T16:27:37.111Z,21.8045
2023-05-05T16:28:39.526Z,21.6730
2023-05-05T16:30:09.576Z,21.8107
2023-05-05T16:31:38.191Z,21.8080
2023-05-05T16:33:07.137Z,21.8163
2023-05-05T16:34:39.062Z,21.8335
2023-05-05T16:36:08.215Z,21.8542
2023-05-05T16:37:40.375Z,21.8824
2023-05-05T16:39:11.102Z,21.9045
2023-05-05T16:40:39.836Z,21.9147
2023-05-05T16:41:41.513Z,21.7649
2023-05-05T16:43:14.250Z,21.8625
2023-05-05T16:44:46.707Z,21.8122
2023-05-05T16:46:15.635Z,21.7771
2023-05-05T16:47:46.080Z,21.7183
2023-05-05T16:49:15.885Z,21.6501
2023-05-05T16:50:18.755Z,21.4673
2023-05-05T16:51:48.330Z,21.5504
2023-05-05T16:52:49.342Z,21.3679
2023-05-05T16:53:51.663Z,21.3232
2023-05-05T16:55:23.280Z,21.4058
2023-05-05T16:56:56.989Z,21.3632
2023-05-05T16:58:24.185Z,21.3372
2023-05-05T16:59:54.267Z,21.2822
2023-05-05T17:01:25.731Z,21.2314
2023-05-05T17:02:57.057Z,21.1720
2023-05-05T17:04:27.793Z,21.1151
2023-05-05T17:05:58.566Z,21.0711
2023-05-05T17:07:02.276Z,20.8861
2023-05-05T17:08:33.752Z,20.9834
2023-05-05T17:09:35.679Z,20.7907
2023-05-05T17:11:05.376Z,20.8803
2023-05-05T17:12:08.507Z,20.6765
2023-05-05T17:13:08.828Z,20.6271
2023-05-05T17:14:13.193Z,20.5789
2023-05-05T17:27:38.330Z,20.3660
2023-05-05T17:28:38.287Z,20.1364
2023-05-05T17:31:10.408Z,20.1512
2023-05-05T17:41:30.768Z,20.0150
2023-05-05T17:45:07.540Z,19.9639
2023-05-05T17:52:55.416Z,19.8607
2023-05-05T17:57:32.654Z,19.8129
